Time;durP1;ratioP1;P1;durP2;ratioP2;P2;SDS_P1;SDS_P2;PMS_P1;PMS_P2;Temp;Humidity;BMP_temperature;BMP_pressure;BME280_temperature;BME280_humidity;BME280_pressure;Samples;Min_cycle;Max_cycle;Signal;HPM_P1;HPM_P2
2021/11/27 00:02:15;;;;;;;12.30;7.60;;;;;;;;;;5032833;28;20851;-63
2021/11/27 00:04:41;;;;;;;13.67;6.87;;;;;;;;;;5032971;28;20931;-63
2021/11/27 00:07:07;;;;;;;10.10;7.20;;;;;;;;;;5032858;28;20811;-63
2021/11/27 00:09:33;;;;;;;9.67;7.50;;;;;;;;;;5032845;28;20421;-63
2021/11/27 00:12:00;;;;;;;10.63;7.60;;;;;;;;;;5032770;28;20796;-63
2021/11/27 00:14:26;;;;;;;10.20;7.33;;;;;;;;;;5032513;28;20948;-64
2021/11/27 00:16:52;;;;;;;10.50;7.67;;;;;;;;;;5032331;28;20468;-63
2021/11/27 00:19:18;;;;;;;10.70;6.93;;;;;;;;;;5032350;28;20411;-64
2021/11/27 00:21:45;;;;;;;10.67;7.20;;;;;;;;;;5032405;28;20462;-65
2021/11/27 00:24:11;;;;;;;12.00;6.93;;;;;;;;;;5032564;28;20546;-62
2021/11/27 00:26:37;;;;;;;10.73;6.87;;;;;;;;;;5032589;28;20395;-63
2021/11/27 00:29:04;;;;;;;8.10;6.53;;;;;;;;;;5033019;28;20959;-63
2021/11/27 00:31:31;;;;;;;8.10;6.50;;;;;;;;;;5032628;28;20843;-62
2021/11/27 00:33:57;;;;;;;9.60;6.57;;;;;;;;;;5032499;28;20462;-64
2021/11/27 00:36:24;;;;;;;8.90;5.80;;;;;;;;;;5015185;28;20422;-64
2021/11/27 00:38:51;;;;;;;10.00;6.40;;;;;;;;;;5036069;28;20429;-64
2021/11/27 00:41:17;;;;;;;8.90;5.63;;;;;;;;;;5035965;28;20451;-64
2021/11/27 00:43:45;;;;;;;8.30;5.80;;;;;;;;;;5036056;28;20434;-64
2021/11/27 00:46:11;;;;;;;9.20;5.57;;;;;;;;;;5036107;28;20486;-64
2021/11/27 00:48:37;;;;;;;8.40;4.93;;;;;;;;;;5036217;28;20438;-64
2021/11/27 00:51:05;;;;;;;7.90;6.13;;;;;;;;;;5036096;28;20821;-64
2021/11/27 00:53:31;;;;;;;8.50;6.00;;;;;;;;;;5035812;28;20480;-65
2021/11/27 00:55:57;;;;;;;7.07;5.20;;;;;;;;;;5036124;28;20409;-65
2021/11/27 00:58:23;;;;;;;6.80;4.87;;;;;;;;;;5035840;28;20456;-65
2021/11/27 01:00:57;;;;;;;7.30;4.77;;;;;;;;;;5036075;28;20484;-64
2021/11/27 01:03:24;;;;;;;7.60;4.63;;;;;;;;;;5035424;28;20450;-63
2021/11/27 01:05:50;;;;;;;7.10;4.20;;;;;;;;;;5036052;28;20442;-63
2021/11/27 01:08:17;;;;;;;6.27;4.70;;;;;;;;;;5035915;28;20403;-64
2021/11/27 01:10:45;;;;;;;5.90;4.70;;;;;;;;;;5035730;28;20403;-64
2021/11/27 01:13:11;;;;;;;6.70;4.73;;;;;;;;;;5035432;28;20993;-64
2021/11/27 01:15:38;;;;;;;7.60;4.90;;;;;;;;;;5035687;28;20411;-64
2021/11/27 01:18:04;;;;;;;5.90;4.57;;;;;;;;;;5035205;28;20457;-64
2021/11/27 01:20:32;;;;;;;7.43;4.70;;;;;;;;;;5017521;28;20886;-64
2021/11/27 01:22:59;;;;;;;6.27;4.60;;;;;;;;;;5035283;28;20461;-64
2021/11/27 01:25:25;;;;;;;5.83;4.60;;;;;;;;;;5035486;28;20817;-64
2021/11/27 01:27:51;;;;;;;4.43;4.03;;;;;;;;;;5035182;28;20407;-64
2021/11/27 01:30:18;;;;;;;6.20;3.90;;;;;;;;;;5035267;28;20482;-64
2021/11/27 01:32:44;;;;;;;5.30;4.47;;;;;;;;;;5035073;28;20457;-64
2021/11/27 01:35:10;;;;;;;6.37;4.10;;;;;;;;;;5035098;28;20921;-64
2021/11/27 01:37:38;;;;;;;6.07;4.70;;;;;;;;;;5035102;28;20403;-64
2021/11/27 01:40:07;;;;;;;7.13;4.00;;;;;;;;;;5035042;28;20460;-64
2021/11/27 01:42:33;;;;;;;5.90;4.00;;;;;;;;;;5035051;28;20467;-64
2021/11/27 01:44:59;;;;;;;6.17;4.17;;;;;;;;;;5034835;28;20403;-64
2021/11/27 01:47:25;;;;;;;6.87;4.60;;;;;;;;;;5034905;28;20961;-64
2021/11/27 01:49:51;;;;;;;4.80;3.40;;;;;;;;;;5033946;28;20460;-64
2021/11/27 01:52:17;;;;;;;7.60;4.17;;;;;;;;;;5035041;28;20426;-65
2021/11/27 01:54:43;;;;;;;5.50;4.63;;;;;;;;;;5034636;28;20403;-64
2021/11/27 01:57:10;;;;;;;5.00;3.17;;;;;;;;;;5035002;28;20429;-64
2021/11/27 01:59:38;;;;;;;8.70;4.40;;;;;;;;;;5034701;28;20438;-65
2021/11/27 02:02:06;;;;;;;4.10;3.00;;;;;;;;;;5034399;28;20493;-63
2021/11/27 02:04:32;;;;;;;6.27;4.07;;;;;;;;;;5034642;28;20411;-64
2021/11/27 02:06:58;;;;;;;5.33;3.17;;;;;;;;;;5034502;28;20431;-64
2021/11/27 02:09:26;;;;;;;4.60;3.57;;;;;;;;;;5034456;28;20803;-65
2021/11/27 02:11:52;;;;;;;4.60;3.77;;;;;;;;;;5034495;28;20422;-64
2021/11/27 02:14:19;;;;;;;3.63;2.80;;;;;;;;;;5034476;28;20411;-65
2021/11/27 02:16:46;;;;;;;3.70;3.00;;;;;;;;;;5034260;28;20419;-65
2021/11/27 02:19:13;;;;;;;4.30;3.10;;;;;;;;;;5034619;28;20411;-65
2021/11/27 02:21:41;;;;;;;6.33;4.00;;;;;;;;;;5033955;28;20554;-65
2021/11/27 02:24:07;;;;;;;4.87;3.30;;;;;;;;;;5034399;28;20410;-65
2021/11/27 02:26:34;;;;;;;3.73;3.10;;;;;;;;;;5035558;28;20581;-64
2021/11/27 02:29:09;;;;;;;4.77;3.33;;;;;;;;;;5034090;28;20411;-65
2021/11/27 02:31:35;;;;;;;5.97;3.70;;;;;;;;;;5034160;28;20496;-65
2021/11/27 02:34:01;;;;;;;4.67;2.60;;;;;;;;;;5034108;28;20434;-64
2021/11/27 02:36:28;;;;;;;3.90;3.13;;;;;;;;;;5034004;28;20403;-64
2021/11/27 02:38:55;;;;;;;4.30;3.17;;;;;;;;;;5033959;28;20402;-64
2021/11/27 02:41:21;;;;;;;4.07;3.20;;;;;;;;;;5033723;28;20969;-64
2021/11/27 02:43:47;;;;;;;4.30;3.10;;;;;;;;;;5033974;28;20952;-64
2021/11/27 02:46:14;;;;;;;5.70;3.80;;;;;;;;;;5033988;28;20399;-64
2021/11/27 02:48:40;;;;;;;4.27;3.50;;;;;;;;;;5033739;28;20406;-64
2021/11/27 02:51:06;;;;;;;9.67;3.70;;;;;;;;;;5033887;28;20489;-64
2021/11/27 02:53:32;;;;;;;3.80;2.90;;;;;;;;;;5034053;28;20426;-64
2021/11/27 02:55:58;;;;;;;5.03;3.00;;;;;;;;;;5033876;28;20920;-63
2021/11/27 02:58:24;;;;;;;4.70;3.33;;;;;;;;;;5033894;28;20878;-64
2021/11/27 03:00:51;;;;;;;4.23;3.13;;;;;;;;;;5033541;28;20932;-64
2021/11/27 03:03:17;;;;;;;4.70;3.27;;;;;;;;;;5033461;28;20815;-64
2021/11/27 03:05:44;;;;;;;5.00;3.10;;;;;;;;;;5033637;28;20407;-64
2021/11/27 03:08:10;;;;;;;5.83;3.00;;;;;;;;;;5033421;28;20426;-65
2021/11/27 03:10:36;;;;;;;4.93;3.80;;;;;;;;;;5033334;28;20457;-64
2021/11/27 03:13:03;;;;;;;3.97;3.40;;;;;;;;;;5033296;28;20517;-64
2021/11/27 03:15:29;;;;;;;6.20;3.90;;;;;;;;;;5033156;28;20850;-64
2021/11/27 03:17:56;;;;;;;4.63;3.40;;;;;;;;;;5033135;28;20413;-64
2021/11/27 03:20:22;;;;;;;5.20;3.63;;;;;;;;;;5032960;28;20403;-63
2021/11/27 03:22:48;;;;;;;5.10;3.37;;;;;;;;;;5033228;28;20469;-64
2021/11/27 03:25:14;;;;;;;4.80;3.50;;;;;;;;;;5033327;28;20398;-65
2021/11/27 03:27:41;;;;;;;3.33;3.03;;;;;;;;;;5015538;28;20917;-64
2021/11/27 03:30:09;;;;;;;6.10;3.47;;;;;;;;;;5033106;28;20490;-65
2021/11/27 03:32:35;;;;;;;3.53;3.13;;;;;;;;;;5033212;28;20475;-65
2021/11/27 03:35:01;;;;;;;4.77;3.00;;;;;;;;;;5033075;28;20414;-65
2021/11/27 03:37:27;;;;;;;4.73;3.40;;;;;;;;;;5032972;28;20461;-65
2021/11/27 03:39:53;;;;;;;6.77;2.77;;;;;;;;;;5033033;28;20406;-65
2021/11/27 03:42:19;;;;;;;4.80;3.27;;;;;;;;;;5032725;28;20482;-65
2021/11/27 03:44:47;;;;;;;3.83;3.20;;;;;;;;;;5032809;28;20418;-65
2021/11/27 03:47:13;;;;;;;3.57;2.60;;;;;;;;;;5033149;28;20404;-64
2021/11/27 03:49:40;;;;;;;6.10;3.80;;;;;;;;;;5033170;28;20739;-65
2021/11/27 03:52:06;;;;;;;4.20;3.30;;;;;;;;;;5033015;28;20725;-65
2021/11/27 03:54:32;;;;;;;4.30;3.30;;;;;;;;;;5032866;28;20407;-64
2021/11/27 03:56:58;;;;;;;5.03;4.50;;;;;;;;;;5040228;28;20437;-65
2021/11/27 03:59:26;;;;;;;5.03;3.57;;;;;;;;;;5043969;28;20448;-64
2021/11/27 04:01:52;;;;;;;9.90;3.67;;;;;;;;;;5052218;28;20465;-64
2021/11/27 04:04:19;;;;;;;4.57;3.20;;;;;;;;;;5039083;28;20838;-64
2021/11/27 04:06:45;;;;;;;4.33;3.70;;;;;;;;;;5052539;28;20398;-65
2021/11/27 04:09:12;;;;;;;5.83;4.67;;;;;;;;;;5052909;28;20393;-64
2021/11/27 04:11:39;;;;;;;7.60;4.33;;;;;;;;;;5053186;28;20425;-64
2021/11/27 04:14:06;;;;;;;4.90;3.90;;;;;;;;;;5056887;28;20405;-63
2021/11/27 04:16:32;;;;;;;5.03;3.83;;;;;;;;;;5056695;28;20394;-63
2021/11/27 04:18:58;;;;;;;5.40;3.97;;;;;;;;;;5056439;28;20410;-63
2021/11/27 04:21:24;;;;;;;4.33;3.77;;;;;;;;;;5056359;28;20810;-63
2021/11/27 04:23:51;;;;;;;4.87;3.40;;;;;;;;;;5056352;28;20919;-63
2021/11/27 04:26:18;;;;;;;5.27;3.67;;;;;;;;;;5056678;28;20425;-63
2021/11/27 04:28:44;;;;;;;5.37;3.90;;;;;;;;;;5056412;28;20900;-64
2021/11/27 04:31:10;;;;;;;4.20;3.80;;;;;;;;;;5056170;28;20493;-65
2021/11/27 04:33:37;;;;;;;3.67;2.90;;;;;;;;;;5056449;28;20437;-63
2021/11/27 04:36:04;;;;;;;4.97;4.00;;;;;;;;;;5056413;28;20410;-64
2021/11/27 04:38:30;;;;;;;6.23;4.27;;;;;;;;;;5055915;28;20908;-63
2021/11/27 04:40:56;;;;;;;4.00;3.40;;;;;;;;;;5056035;28;20503;-66
2021/11/27 04:43:23;;;;;;;4.43;3.70;;;;;;;;;;5053221;28;20429;-64
2021/11/27 04:45:49;;;;;;;5.13;3.67;;;;;;;;;;5041771;28;20418;-64
2021/11/27 04:48:15;;;;;;;4.30;3.30;;;;;;;;;;5056080;28;20755;-64
2021/11/27 04:50:41;;;;;;;7.13;3.93;;;;;;;;;;5054250;28;20422;-65
2021/11/27 04:53:08;;;;;;;4.67;3.37;;;;;;;;;;5055640;28;20445;-64
2021/11/27 04:55:34;;;;;;;5.90;4.53;;;;;;;;;;5055706;28;20402;-65
2021/11/27 04:58:01;;;;;;;5.23;4.00;;;;;;;;;;5055507;28;20402;-65
2021/11/27 05:00:33;;;;;;;5.30;4.27;;;;;;;;;;5055781;28;20446;-65
2021/11/27 05:02:59;;;;;;;4.60;4.00;;;;;;;;;;5055555;28;20466;-64
2021/11/27 05:05:25;;;;;;;5.90;4.70;;;;;;;;;;5055670;28;20420;-64
2021/11/27 05:07:52;;;;;;;9.10;4.50;;;;;;;;;;5053142;28;20428;-64
2021/11/27 05:10:19;;;;;;;6.03;4.50;;;;;;;;;;5055732;28;20409;-64
2021/11/27 05:12:45;;;;;;;6.73;4.50;;;;;;;;;;5055717;28;20509;-64
2021/11/27 05:15:11;;;;;;;5.53;4.37;;;;;;;;;;5038129;28;20943;-63
2021/11/27 05:17:37;;;;;;;4.67;4.20;;;;;;;;;;5056758;28;20782;-63
2021/11/27 05:20:05;;;;;;;5.50;4.30;;;;;;;;;;5055749;28;20418;-64
2021/11/27 05:22:31;;;;;;;5.97;4.47;;;;;;;;;;5054964;28;20453;-65
2021/11/27 05:24:57;;;;;;;5.23;4.00;;;;;;;;;;5054669;28;20774;-65
2021/11/27 05:27:23;;;;;;;5.60;4.13;;;;;;;;;;5055597;28;20521;-64
2021/11/27 05:29:49;;;;;;;6.10;4.63;;;;;;;;;;5055158;28;20401;-64
2021/11/27 05:32:28;;;;;;;8.93;4.80;;;;;;;;;;5055425;28;20785;-64
2021/11/27 05:34:55;;;;;;;5.23;4.27;;;;;;;;;;5055379;28;20746;-65
2021/11/27 05:37:21;;;;;;;5.40;4.50;;;;;;;;;;5037279;28;20422;-64
2021/11/27 05:39:48;;;;;;;6.03;4.73;;;;;;;;;;5055023;28;20410;-65
2021/11/27 05:42:15;;;;;;;6.93;4.47;;;;;;;;;;5054765;28;21043;-63
2021/11/27 05:44:41;;;;;;;5.23;4.60;;;;;;;;;;5054630;28;20892;-65
2021/11/27 05:47:07;;;;;;;5.10;4.60;;;;;;;;;;5054891;28;20841;-63
2021/11/27 05:49:34;;;;;;;6.93;4.23;;;;;;;;;;5054775;28;20410;-64
2021/11/27 05:52:00;;;;;;;6.80;4.43;;;;;;;;;;5054623;28;20475;-64
2021/11/27 05:54:26;;;;;;;6.27;4.50;;;;;;;;;;5054574;28;20769;-63
2021/11/27 05:56:52;;;;;;;5.30;4.60;;;;;;;;;;5054478;28;20409;-63
2021/11/27 05:59:18;;;;;;;6.00;4.23;;;;;;;;;;5054404;28;20455;-63
2021/11/27 06:01:44;;;;;;;5.80;5.07;;;;;;;;;;5054186;28;20548;-63
2021/11/27 06:04:10;;;;;;;5.70;4.50;;;;;;;;;;5054421;28;20382;-63
2021/11/27 06:06:36;;;;;;;7.37;4.60;;;;;;;;;;5054327;28;20398;-65
2021/11/27 06:09:02;;;;;;;5.53;4.37;;;;;;;;;;5054211;28;20402;-63
2021/11/27 06:11:28;;;;;;;5.87;4.60;;;;;;;;;;5054465;28;20494;-63
2021/11/27 06:13:54;;;;;;;5.87;4.60;;;;;;;;;;5054364;28;20413;-64
2021/11/27 06:16:21;;;;;;;5.30;4.60;;;;;;;;;;5054308;28;20456;-64
2021/11/27 06:18:47;;;;;;;5.37;4.17;;;;;;;;;;5054438;28;20413;-63
2021/11/27 06:21:13;;;;;;;5.80;4.37;;;;;;;;;;5054269;28;20495;-65
2021/11/27 06:23:39;;;;;;;5.30;4.20;;;;;;;;;;5054432;28;20398;-65
2021/11/27 06:26:05;;;;;;;6.40;4.60;;;;;;;;;;5054173;28;20413;-65
2021/11/27 06:28:33;;;;;;;5.23;4.20;;;;;;;;;;5078744;22;20484;-63
2021/11/27 06:30:59;;;;;;;5.90;4.50;;;;;;;;;;5054260;28;20394;-63
2021/11/27 06:33:25;;;;;;;5.63;4.30;;;;;;;;;;5053062;28;20711;-63
2021/11/27 06:35:51;;;;;;;5.43;4.83;;;;;;;;;;5053527;28;20401;-64
2021/11/27 06:38:20;;;;;;;6.10;4.70;;;;;;;;;;5036838;28;20433;-64
2021/11/27 06:40:46;;;;;;;6.30;4.70;;;;;;;;;;5053880;28;20402;-64
2021/11/27 06:43:12;;;;;;;5.00;4.00;;;;;;;;;;5053739;28;20454;-64
2021/11/27 06:45:38;;;;;;;5.60;3.83;;;;;;;;;;5053853;28;20441;-65
2021/11/27 06:48:04;;;;;;;5.03;4.10;;;;;;;;;;5053777;28;20413;-64
2021/11/27 06:50:30;;;;;;;5.13;4.07;;;;;;;;;;5053663;28;20446;-64
2021/11/27 06:52:56;;;;;;;5.80;3.50;;;;;;;;;;5053652;28;20779;-63
2021/11/27 06:55:23;;;;;;;4.20;3.70;;;;;;;;;;5053664;28;20395;-63
2021/11/27 06:57:49;;;;;;;6.20;4.30;;;;;;;;;;5053608;28;20446;-63
2021/11/27 07:00:15;;;;;;;5.40;4.00;;;;;;;;;;5053732;28;20463;-63
2021/11/27 07:02:41;;;;;;;4.93;4.27;;;;;;;;;;5053488;28;20449;-64
2021/11/27 07:05:07;;;;;;;5.60;4.37;;;;;;;;;;5053572;28;20398;-63
2021/11/27 07:07:33;;;;;;;6.30;4.37;;;;;;;;;;5053539;28;20406;-63
2021/11/27 07:09:59;;;;;;;5.40;4.20;;;;;;;;;;5053247;28;20927;-63
2021/11/27 07:12:25;;;;;;;5.17;3.90;;;;;;;;;;5053457;28;20911;-64
2021/11/27 07:14:52;;;;;;;8.43;5.20;;;;;;;;;;5053532;28;20453;-64
2021/11/27 07:17:18;;;;;;;4.80;3.67;;;;;;;;;;5053176;28;20500;-64
2021/11/27 07:19:44;;;;;;;5.63;4.00;;;;;;;;;;5053156;28;20480;-63
2021/11/27 07:22:10;;;;;;;6.03;4.30;;;;;;;;;;5053120;28;20503;-64
2021/11/27 07:24:36;;;;;;;6.63;4.10;;;;;;;;;;5053308;28;20927;-64
2021/11/27 07:27:09;;;;;;;5.43;4.33;;;;;;;;;;5053211;28;20438;-64
2021/11/27 07:29:37;;;;;;;4.77;4.20;;;;;;;;;;5052731;28;20487;-64
2021/11/27 07:32:03;;;;;;;6.60;4.83;;;;;;;;;;5052788;28;20409;-64
2021/11/27 07:34:29;;;;;;;7.10;4.93;;;;;;;;;;5051665;28;20911;-63
2021/11/27 07:36:56;;;;;;;6.60;4.93;;;;;;;;;;5052762;28;20397;-64
2021/11/27 07:39:22;;;;;;;6.27;4.30;;;;;;;;;;5052981;28;20853;-63
2021/11/27 07:41:48;;;;;;;7.10;4.20;;;;;;;;;;5052623;28;20449;-64
2021/11/27 07:44:14;;;;;;;5.57;4.37;;;;;;;;;;5052816;28;20799;-64
2021/11/27 07:46:40;;;;;;;5.17;4.33;;;;;;;;;;5051974;28;20489;-64
2021/11/27 07:49:06;;;;;;;7.20;4.10;;;;;;;;;;5052881;28;20418;-64
2021/11/27 07:51:32;;;;;;;5.03;4.20;;;;;;;;;;5052884;28;20430;-64
2021/11/27 07:53:59;;;;;;;5.20;4.20;;;;;;;;;;5052883;28;20428;-64
2021/11/27 07:56:25;;;;;;;4.90;4.13;;;;;;;;;;5052568;28;20448;-63
2021/11/27 07:58:51;;;;;;;6.17;5.10;;;;;;;;;;5052763;28;20437;-64
2021/11/27 08:01:17;;;;;;;6.00;4.60;;;;;;;;;;5052681;28;20712;-64
2021/11/27 08:03:44;;;;;;;5.70;4.70;;;;;;;;;;5052489;28;20532;-64
2021/11/27 08:06:10;;;;;;;5.03;4.30;;;;;;;;;;5052438;28;20401;-63
2021/11/27 08:08:37;;;;;;;6.63;4.80;;;;;;;;;;5052608;28;20544;-63
2021/11/27 08:11:04;;;;;;;7.13;4.60;;;;;;;;;;5052385;28;20412;-64
2021/11/27 08:13:30;;;;;;;4.20;3.77;;;;;;;;;;5052498;28;20481;-64
2021/11/27 08:15:56;;;;;;;5.00;3.90;;;;;;;;;;5052352;28;20402;-63
2021/11/27 08:18:22;;;;;;;6.20;4.67;;;;;;;;;;5052389;28;20516;-64
2021/11/27 08:20:50;;;;;;;6.60;5.10;;;;;;;;;;5052582;28;20402;-64
2021/11/27 08:23:19;;;;;;;7.27;4.77;;;;;;;;;;5052540;28;20464;-63
2021/11/27 08:25:47;;;;;;;6.20;4.83;;;;;;;;;;5052459;28;20488;-63
2021/11/27 08:28:13;;;;;;;7.33;5.10;;;;;;;;;;5052154;28;20935;-64
2021/11/27 08:30:39;;;;;;;5.90;4.90;;;;;;;;;;5052313;28;20386;-63
2021/11/27 08:33:05;;;;;;;5.77;4.47;;;;;;;;;;5052262;28;20409;-64
2021/11/27 08:35:31;;;;;;;6.40;4.67;;;;;;;;;;5050835;28;20409;-63
2021/11/27 08:37:58;;;;;;;6.00;4.87;;;;;;;;;;5052250;28;20402;-64
2021/11/27 08:40:24;;;;;;;8.27;5.00;;;;;;;;;;5052301;28;20764;-63
2021/11/27 08:42:50;;;;;;;8.13;5.20;;;;;;;;;;5051934;28;20449;-63
2021/11/27 08:45:16;;;;;;;6.97;4.70;;;;;;;;;;5052118;28;20405;-63
2021/11/27 08:47:43;;;;;;;7.67;4.73;;;;;;;;;;5052135;28;20402;-63
2021/11/27 08:50:09;;;;;;;6.07;4.67;;;;;;;;;;5052036;28;20429;-63
2021/11/27 08:52:35;;;;;;;7.13;5.50;;;;;;;;;;5052094;28;20814;-63
2021/11/27 08:55:01;;;;;;;8.43;4.53;;;;;;;;;;5050869;28;20432;-63
2021/11/27 08:57:28;;;;;;;6.47;4.90;;;;;;;;;;5051653;28;20442;-69
2021/11/27 08:59:54;;;;;;;9.03;5.30;;;;;;;;;;5051749;28;20438;-70
2021/11/27 09:02:20;;;;;;;7.20;4.13;;;;;;;;;;5055412;28;20449;-69
2021/11/27 09:04:46;;;;;;;6.10;4.57;;;;;;;;;;5055138;28;20424;-69
2021/11/27 09:07:12;;;;;;;6.60;4.70;;;;;;;;;;5055023;28;20487;-66
2021/11/27 09:09:38;;;;;;;5.47;4.40;;;;;;;;;;5043900;28;20460;-65
2021/11/27 09:12:05;;;;;;;5.17;4.00;;;;;;;;;;5051615;28;20461;-65
2021/11/27 09:14:32;;;;;;;6.57;4.33;;;;;;;;;;5047486;28;20517;-65
2021/11/27 09:16:58;;;;;;;7.73;5.30;;;;;;;;;;5054557;28;20435;-66
2021/11/27 09:19:24;;;;;;;6.17;4.80;;;;;;;;;;5054773;28;20430;-65
2021/11/27 09:21:50;;;;;;;6.80;5.17;;;;;;;;;;5054472;28;20452;-66
2021/11/27 09:24:17;;;;;;;8.73;5.27;;;;;;;;;;5051694;28;20917;-66
2021/11/27 09:26:43;;;;;;;6.50;4.50;;;;;;;;;;5054231;28;20544;-67
2021/11/27 09:29:10;;;;;;;6.33;4.20;;;;;;;;;;5054070;28;20823;-65
2021/11/27 09:31:40;;;;;;;7.77;4.93;;;;;;;;;;5054139;28;20458;-68
2021/11/27 09:34:09;;;;;;;7.10;4.50;;;;;;;;;;5053471;28;20419;-65
2021/11/27 09:36:36;;;;;;;9.90;5.73;;;;;;;;;;5054071;28;20171;-69
2021/11/27 09:39:03;;;;;;;7.00;4.90;;;;;;;;;;5054862;28;20472;-67
2021/11/27 09:41:30;;;;;;;6.87;3.60;;;;;;;;;;5053071;28;20517;-64
2021/11/27 09:43:57;;;;;;;5.67;4.13;;;;;;;;;;5054055;28;20406;-67
2021/11/27 09:46:24;;;;;;;6.57;4.13;;;;;;;;;;5053484;28;20493;-68
2021/11/27 09:48:51;;;;;;;4.07;3.50;;;;;;;;;;5054466;28;20812;-64
2021/11/27 09:51:22;;;;;;;5.17;3.97;;;;;;;;;;5053915;28;20493;-67
2021/11/27 09:53:48;;;;;;;5.33;4.10;;;;;;;;;;5045984;28;20406;-63
2021/11/27 09:56:16;;;;;;;6.70;4.00;;;;;;;;;;5054127;28;20493;-63
2021/11/27 09:58:42;;;;;;;7.07;3.77;;;;;;;;;;5054313;28;20969;-63
2021/11/27 10:01:08;;;;;;;4.23;3.60;;;;;;;;;;5054569;28;20394;-63
2021/11/27 10:03:35;;;;;;;4.93;3.33;;;;;;;;;;5054293;28;20395;-63
2021/11/27 10:06:02;;;;;;;5.17;3.33;;;;;;;;;;5054425;28;20401;-63
2021/11/27 10:08:28;;;;;;;5.83;4.10;;;;;;;;;;5054284;28;20426;-63
2021/11/27 10:10:54;;;;;;;6.63;4.67;;;;;;;;;;5053744;28;20414;-63
2021/11/27 10:13:21;;;;;;;4.90;3.30;;;;;;;;;;5054088;28;20904;-63
2021/11/27 10:15:48;;;;;;;4.33;2.70;;;;;;;;;;5054147;28;20394;-63
2021/11/27 10:18:21;;;;;;;4.37;3.13;;;;;;;;;;5054247;28;20519;-63
2021/11/27 10:20:48;;;;;;;4.77;3.97;;;;;;;;;;5053989;28;20918;-63
2021/11/27 10:23:14;;;;;;;5.27;4.23;;;;;;;;;;5054086;28;20529;-63
2021/11/27 10:25:41;;;;;;;7.23;4.30;;;;;;;;;;5054107;28;20774;-63
2021/11/27 10:28:15;;;;;;;6.00;4.70;;;;;;;;;;5053610;28;20430;-63
2021/11/27 10:30:41;;;;;;;4.73;3.90;;;;;;;;;;5053773;28;20427;-63
2021/11/27 10:33:07;;;;;;;3.97;3.00;;;;;;;;;;5054019;28;20406;-63
2021/11/27 10:35:33;;;;;;;5.23;3.43;;;;;;;;;;5054021;28;20401;-63
2021/11/27 10:37:59;;;;;;;9.50;3.37;;;;;;;;;;5052256;28;20406;-63
2021/11/27 10:40:27;;;;;;;4.23;3.50;;;;;;;;;;5053568;28;20773;-63
2021/11/27 10:42:57;;;;;;;4.17;3.37;;;;;;;;;;5053389;28;20441;-63
2021/11/27 10:45:30;;;;;;;4.00;3.40;;;;;;;;;;5053487;28;20890;-63
2021/11/27 10:48:08;;;;;;;5.63;4.00;;;;;;;;;;5053401;28;20532;-63
2021/11/27 10:50:42;;;;;;;3.93;2.67;;;;;;;;;;5053635;28;20398;-63
2021/11/27 10:53:12;;;;;;;4.40;3.70;;;;;;;;;;5053492;28;20398;-63
2021/11/27 10:55:39;;;;;;;3.50;3.00;;;;;;;;;;5052122;28;20528;-63
2021/11/27 10:58:07;;;;;;;4.67;3.70;;;;;;;;;;5053534;28;20789;-63
2021/11/27 11:00:39;;;;;;;5.43;3.60;;;;;;;;;;5053351;28;20418;-63
2021/11/27 11:03:09;;;;;;;4.47;3.00;;;;;;;;;;5053249;28;20454;-63
2021/11/27 11:05:39;;;;;;;8.40;6.30;;;;;;;;;;5053336;28;20516;-63
2021/11/27 11:08:07;;;;;;;6.47;3.47;;;;;;;;;;5046964;28;20882;-63
2021/11/27 11:10:37;;;;;;;3.30;3.00;;;;;;;;;;5052834;28;20484;-63
2021/11/27 11:13:07;;;;;;;9.60;3.80;;;;;;;;;;5053078;28;20405;-63
2021/11/27 11:15:33;;;;;;;4.40;3.40;;;;;;;;;;5052784;28;20402;-63
2021/11/27 11:18:05;;;;;;;4.80;3.70;;;;;;;;;;5052895;28;20394;-63
2021/11/27 11:20:32;;;;;;;6.87;4.40;;;;;;;;;;5052820;28;20397;-63
2021/11/27 11:23:01;;;;;;;5.43;4.00;;;;;;;;;;5052837;28;20522;-63
2021/11/27 11:25:27;;;;;;;4.63;3.70;;;;;;;;;;5052712;28;20452;-62
2021/11/27 11:27:53;;;;;;;4.00;3.40;;;;;;;;;;5052536;28;20863;-63
2021/11/27 11:30:23;;;;;;;4.80;3.97;;;;;;;;;;5052811;28;20390;-63
2021/11/27 11:32:50;;;;;;;6.47;4.30;;;;;;;;;;5052707;28;20929;-63
2021/11/27 11:35:16;;;;;;;5.00;4.13;;;;;;;;;;5053040;28;20421;-63
2021/11/27 11:37:42;;;;;;;11.20;6.70;;;;;;;;;;5052526;28;20436;-63
2021/11/27 11:40:09;;;;;;;4.20;3.40;;;;;;;;;;5052997;28;20469;-63
2021/11/27 11:42:35;;;;;;;4.57;3.70;;;;;;;;;;5052879;28;20442;-63
2021/11/27 11:45:01;;;;;;;6.50;4.20;;;;;;;;;;5052637;28;20792;-62
2021/11/27 11:47:27;;;;;;;6.03;4.10;;;;;;;;;;5052587;28;20448;-63
2021/11/27 11:49:57;;;;;;;7.20;4.37;;;;;;;;;;5052632;28;20418;-63
2021/11/27 11:52:31;;;;;;;5.07;4.03;;;;;;;;;;5053224;28;20398;-63
2021/11/27 11:55:16;;;;;;;5.70;4.23;;;;;;;;;;5053211;28;20398;-63
2021/11/27 11:57:46;;;;;;;3.90;3.27;;;;;;;;;;5052604;28;20386;-63
2021/11/27 12:00:35;;;;;;;6.73;3.40;;;;;;;;;;5052928;28;20795;-62
2021/11/27 12:03:12;;;;;;;5.33;3.30;;;;;;;;;;5045042;28;20544;-63
2021/11/27 12:06:02;;;;;;;5.30;2.77;;;;;;;;;;5052958;28;20871;-63
2021/11/27 12:08:49;;;;;;;4.20;3.40;;;;;;;;;;5043573;28;20436;-62
2021/11/27 12:11:34;;;;;;;4.43;3.67;;;;;;;;;;5052884;28;20409;-63
2021/11/27 12:14:00;;;;;;;4.13;3.67;;;;;;;;;;5052563;28;20386;-62
2021/11/27 12:16:27;;;;;;;4.93;3.83;;;;;;;;;;5052894;28;20763;-63
2021/11/27 12:19:06;;;;;;;4.53;3.60;;;;;;;;;;5052422;28;20417;-63
2021/11/27 12:21:32;;;;;;;4.53;3.70;;;;;;;;;;5052593;28;20536;-63
2021/11/27 12:23:58;;;;;;;3.90;2.77;;;;;;;;;;5052432;28;20409;-64
2021/11/27 12:26:26;;;;;;;4.97;3.27;;;;;;;;;;5052541;28;20404;-63
2021/11/27 12:28:52;;;;;;;4.67;3.20;;;;;;;;;;5076894;22;20528;-64
2021/11/27 12:31:24;;;;;;;4.83;3.37;;;;;;;;;;5042612;28;20469;-62
2021/11/27 12:33:50;;;;;;;5.60;3.10;;;;;;;;;;5054987;28;20732;-64
2021/11/27 12:36:25;;;;;;;4.23;3.43;;;;;;;;;;5055985;28;20393;-64
2021/11/27 12:39:10;;;;;;;3.43;2.73;;;;;;;;;;5055620;28;20433;-64
2021/11/27 12:41:47;;;;;;;3.50;2.80;;;;;;;;;;5055716;28;20531;-65
2021/11/27 12:44:22;;;;;;;3.30;2.90;;;;;;;;;;5055643;28;20393;-64
2021/11/27 12:47:08;;;;;;;4.23;3.47;;;;;;;;;;5055849;28;20736;-64
2021/11/27 12:49:34;;;;;;;4.83;3.43;;;;;;;;;;5044744;28;20432;-67
2021/11/27 12:52:12;;;;;;;3.73;2.70;;;;;;;;;;5055745;28;20401;-63
2021/11/27 12:54:39;;;;;;;3.50;2.90;;;;;;;;;;5055418;28;20685;-64
2021/11/27 12:57:05;;;;;;;3.70;2.60;;;;;;;;;;5055401;28;20402;-64
2021/11/27 12:59:31;;;;;;;3.43;2.63;;;;;;;;;;5055353;28;20749;-63
2021/11/27 13:01:57;;;;;;;3.83;2.33;;;;;;;;;;5055929;28;20480;-63
2021/11/27 13:04:24;;;;;;;4.30;2.13;;;;;;;;;;5055757;28;20433;-63
2021/11/27 13:06:50;;;;;;;4.07;2.40;;;;;;;;;;5055477;28;20463;-64
2021/11/27 13:09:17;;;;;;;2.93;2.23;;;;;;;;;;5055421;28;20421;-63
2021/11/27 13:11:51;;;;;;;3.03;2.13;;;;;;;;;;5055128;28;20417;-63
2021/11/27 13:14:24;;;;;;;4.30;2.50;;;;;;;;;;5055307;28;20398;-63
2021/11/27 13:16:51;;;;;;;2.77;2.00;;;;;;;;;;5055472;28;20418;-62
2021/11/27 13:19:27;;;;;;;5.27;2.50;;;;;;;;;;5054971;28;20426;-63
2021/11/27 13:21:53;;;;;;;3.93;2.23;;;;;;;;;;5054831;28;20476;-64
2021/11/27 13:24:19;;;;;;;6.33;2.63;;;;;;;;;;5054905;28;20402;-63
2021/11/27 13:26:45;;;;;;;4.30;2.30;;;;;;;;;;5054737;28;20394;-63
2021/11/27 13:29:12;;;;;;;2.83;2.10;;;;;;;;;;5054678;28;20868;-63
2021/11/27 13:31:43;;;;;;;4.30;2.20;;;;;;;;;;5054848;28;20417;-63
2021/11/27 13:34:19;;;;;;;3.80;1.83;;;;;;;;;;5054966;28;20429;-64
2021/11/27 13:36:46;;;;;;;4.13;1.80;;;;;;;;;;5054662;28;20433;-63
2021/11/27 13:39:13;;;;;;;2.67;2.13;;;;;;;;;;5054568;28;20449;-63
2021/11/27 13:41:39;;;;;;;3.87;2.33;;;;;;;;;;5054575;28;20461;-64
2021/11/27 13:44:10;;;;;;;3.33;2.33;;;;;;;;;;5053462;28;20406;-63
2021/11/27 13:46:53;;;;;;;5.20;3.00;;;;;;;;;;5054605;28;20734;-65
2021/11/27 13:49:26;;;;;;;5.90;2.87;;;;;;;;;;5053164;28;20440;-64
2021/11/27 13:51:53;;;;;;;3.30;2.10;;;;;;;;;;5054460;28;20747;-64
2021/11/27 13:54:19;;;;;;;4.07;2.23;;;;;;;;;;5054499;28;20406;-64
2021/11/27 13:56:45;;;;;;;3.00;1.90;;;;;;;;;;5054396;28;20455;-64
2021/11/27 13:59:22;;;;;;;3.47;2.10;;;;;;;;;;5054417;28;20776;-64
2021/11/27 14:02:04;;;;;;;2.90;1.83;;;;;;;;;;5054283;28;20460;-64
2021/11/27 14:04:30;;;;;;;3.83;1.93;;;;;;;;;;5054265;28;20414;-64
2021/11/27 14:07:16;;;;;;;3.87;1.90;;;;;;;;;;5054240;28;20868;-64
2021/11/27 14:09:42;;;;;;;2.93;2.03;;;;;;;;;;5054171;28;20423;-64
2021/11/27 14:12:27;;;;;;;3.40;2.37;;;;;;;;;;5053905;28;20406;-64
2021/11/27 14:14:54;;;;;;;3.43;2.60;;;;;;;;;;5053857;28;20410;-64
2021/11/27 14:17:20;;;;;;;3.03;2.17;;;;;;;;;;5054005;28;20413;-64
2021/11/27 14:19:47;;;;;;;4.90;2.07;;;;;;;;;;5054074;28;20420;-64
2021/11/27 14:22:14;;;;;;;3.23;2.00;;;;;;;;;;5054002;28;20461;-64
2021/11/27 14:24:41;;;;;;;2.77;2.00;;;;;;;;;;5053859;28;20409;-64
2021/11/27 14:27:07;;;;;;;3.30;2.23;;;;;;;;;;5053917;28;20741;-64
2021/11/27 14:29:33;;;;;;;4.53;1.93;;;;;;;;;;5053900;28;20903;-64
2021/11/27 14:31:59;;;;;;;3.73;1.93;;;;;;;;;;5054188;28;20409;-64
2021/11/27 14:34:33;;;;;;;3.97;1.87;;;;;;;;;;5054226;28;20778;-64
2021/11/27 14:37:03;;;;;;;4.13;2.47;;;;;;;;;;5053687;28;20397;-64
2021/11/27 14:39:30;;;;;;;2.93;2.17;;;;;;;;;;5053869;28;20454;-63
2021/11/27 14:42:22;;;;;;;2.60;1.80;;;;;;;;;;5053586;28;20449;-63
2021/11/27 14:44:54;;;;;;;2.47;1.83;;;;;;;;;;5050638;28;20464;-63
2021/11/27 14:47:20;;;;;;;3.60;2.47;;;;;;;;;;5053624;28;20824;-63